sensor_id;sensor_type;location;lat;lon;timestamp;P1;durP1;ratioP1;P2;durP2;ratioP2
13002;SDS011;6566;57.702;11.984;2022-07-04T00:00:34;4.50;;;4.10;;
13002;SDS011;6566;57.702;11.984;2022-07-04T00:03:03;5.25;;;4.68;;
13002;SDS011;6566;57.702;11.984;2022-07-04T00:05:32;5.15;;;4.65;;
13002;SDS011;6566;57.702;11.984;2022-07-04T00:07:57;5.15;;;4.75;;
13002;SDS011;6566;57.702;11.984;2022-07-04T00:10:24;5.30;;;4.80;;
13002;SDS011;6566;57.702;11.984;2022-07-04T00:12:51;5.57;;;4.82;;
13002;SDS011;6566;57.702;11.984;2022-07-04T00:15:17;6.35;;;5.28;;
13002;SDS011;6566;57.702;11.984;2022-07-04T00:17:44;5.63;;;5.13;;
13002;SDS011;6566;57.702;11.984;2022-07-04T00:20:11;6.22;;;5.45;;
13002;SDS011;6566;57.702;11.984;2022-07-04T00:22:38;5.65;;;4.88;;
13002;SDS011;6566;57.702;11.984;2022-07-04T00:25:03;12.93;;;3.25;;
13002;SDS011;6566;57.702;11.984;2022-07-04T00:27:31;15.57;;;5.13;;
13002;SDS011;6566;57.702;11.984;2022-07-04T00:29:58;9.25;;;3.28;;
13002;SDS011;6566;57.702;11.984;2022-07-04T00:32:25;8.32;;;2.88;;
13002;SDS011;6566;57.702;11.984;2022-07-04T00:34:51;6.88;;;2.22;;
13002;SDS011;6566;57.702;11.984;2022-07-04T00:37:18;7.72;;;1.85;;
13002;SDS011;6566;57.702;11.984;2022-07-04T00:39:43;5.25;;;1.58;;
13002;SDS011;6566;57.702;11.984;2022-07-04T00:42:09;10.20;;;2.88;;
13002;SDS011;6566;57.702;11.984;2022-07-04T00:44:36;15.98;;;2.67;;
13002;SDS011;6566;57.702;11.984;2022-07-04T00:47:03;13.85;;;2.97;;
13002;SDS011;6566;57.702;11.984;2022-07-04T00:49:30;15.45;;;3.15;;
13002;SDS011;6566;57.702;11.984;2022-07-04T00:51:56;12.45;;;3.10;;
13002;SDS011;6566;57.702;11.984;2022-07-04T00:54:25;14.98;;;2.90;;
13002;SDS011;6566;57.702;11.984;2022-07-04T00:56:53;13.88;;;2.13;;
13002;SDS011;6566;57.702;11.984;2022-07-04T00:59:21;11.45;;;2.50;;
13002;SDS011;6566;57.702;11.984;2022-07-04T01:01:47;8.30;;;2.20;;
13002;SDS011;6566;57.702;11.984;2022-07-04T01:04:14;9.50;;;2.20;;
13002;SDS011;6566;57.702;11.984;2022-07-04T01:06:41;6.97;;;2.00;;
13002;SDS011;6566;57.702;11.984;2022-07-04T01:09:08;8.43;;;2.13;;
13002;SDS011;6566;57.702;11.984;2022-07-04T01:11:34;6.43;;;2.00;;
13002;SDS011;6566;57.702;11.984;2022-07-04T01:14:01;7.35;;;1.85;;
13002;SDS011;6566;57.702;11.984;2022-07-04T01:16:28;7.47;;;2.03;;
13002;SDS011;6566;57.702;11.984;2022-07-04T01:18:55;8.63;;;1.95;;
13002;SDS011;6566;57.702;11.984;2022-07-04T01:21:21;11.45;;;2.30;;
13002;SDS011;6566;57.702;11.984;2022-07-04T01:23:48;8.85;;;2.00;;
13002;SDS011;6566;57.702;11.984;2022-07-04T01:26:14;10.75;;;2.15;;
13002;SDS011;6566;57.702;11.984;2022-07-04T01:28:40;5.95;;;1.33;;
13002;SDS011;6566;57.702;11.984;2022-07-04T01:31:06;7.90;;;2.00;;
13002;SDS011;6566;57.702;11.984;2022-07-04T01:33:32;7.67;;;1.37;;
13002;SDS011;6566;57.702;11.984;2022-07-04T01:35:59;6.43;;;1.60;;
13002;SDS011;6566;57.702;11.984;2022-07-04T01:38:26;6.88;;;1.55;;
13002;SDS011;6566;57.702;11.984;2022-07-04T01:40:51;9.68;;;1.60;;
13002;SDS011;6566;57.702;11.984;2022-07-04T01:43:17;8.93;;;1.50;;
13002;SDS011;6566;57.702;11.984;2022-07-04T01:45:44;7.75;;;1.52;;
13002;SDS011;6566;57.702;11.984;2022-07-04T01:48:11;11.15;;;1.88;;
13002;SDS011;6566;57.702;11.984;2022-07-04T01:50:38;6.78;;;1.52;;
13002;SDS011;6566;57.702;11.984;2022-07-04T01:53:04;8.20;;;1.38;;
13002;SDS011;6566;57.702;11.984;2022-07-04T01:55:31;7.90;;;1.15;;
13002;SDS011;6566;57.702;11.984;2022-07-04T01:57:58;7.85;;;1.70;;
13002;SDS011;6566;57.702;11.984;2022-07-04T02:00:24;5.43;;;1.40;;
13002;SDS011;6566;57.702;11.984;2022-07-04T02:03:09;4.90;;;1.40;;
13002;SDS011;6566;57.702;11.984;2022-07-04T02:05:36;8.65;;;1.60;;
13002;SDS011;6566;57.702;11.984;2022-07-04T02:08:09;6.85;;;1.10;;
13002;SDS011;6566;57.702;11.984;2022-07-04T02:10:36;8.60;;;1.50;;
13002;SDS011;6566;57.702;11.984;2022-07-04T02:13:02;8.55;;;1.48;;
13002;SDS011;6566;57.702;11.984;2022-07-04T02:15:32;8.93;;;1.40;;
13002;SDS011;6566;57.702;11.984;2022-07-04T02:17:59;8.20;;;1.42;;
13002;SDS011;6566;57.702;11.984;2022-07-04T02:20:29;11.68;;;1.80;;
13002;SDS011;6566;57.702;11.984;2022-07-04T02:22:56;9.82;;;1.70;;
13002;SDS011;6566;57.702;11.984;2022-07-04T02:25:22;8.60;;;1.67;;
13002;SDS011;6566;57.702;11.984;2022-07-04T02:27:49;7.65;;;1.70;;
13002;SDS011;6566;57.702;11.984;2022-07-04T02:30:14;10.02;;;1.30;;
13002;SDS011;6566;57.702;11.984;2022-07-04T02:32:41;7.73;;;1.63;;
13002;SDS011;6566;57.702;11.984;2022-07-04T02:35:08;9.20;;;1.75;;
13002;SDS011;6566;57.702;11.984;2022-07-04T02:37:35;7.32;;;1.67;;
13002;SDS011;6566;57.702;11.984;2022-07-04T02:40:02;12.05;;;1.92;;
13002;SDS011;6566;57.702;11.984;2022-07-04T02:42:30;7.90;;;1.65;;
13002;SDS011;6566;57.702;11.984;2022-07-04T02:44:56;7.97;;;1.48;;
13002;SDS011;6566;57.702;11.984;2022-07-04T02:47:25;10.43;;;1.48;;
13002;SDS011;6566;57.702;11.984;2022-07-04T02:49:51;10.70;;;1.63;;
13002;SDS011;6566;57.702;11.984;2022-07-04T02:52:18;6.97;;;1.52;;
13002;SDS011;6566;57.702;11.984;2022-07-04T02:54:45;9.75;;;1.45;;
13002;SDS011;6566;57.702;11.984;2022-07-04T02:57:12;6.53;;;1.55;;
13002;SDS011;6566;57.702;11.984;2022-07-04T02:59:39;7.20;;;1.23;;
13002;SDS011;6566;57.702;11.984;2022-07-04T03:02:05;5.55;;;1.60;;
13002;SDS011;6566;57.702;11.984;2022-07-04T03:04:32;7.43;;;1.30;;
13002;SDS011;6566;57.702;11.984;2022-07-04T03:06:58;6.47;;;1.63;;
13002;SDS011;6566;57.702;11.984;2022-07-04T03:09:24;12.18;;;2.33;;
13002;SDS011;6566;57.702;11.984;2022-07-04T03:11:55;4.38;;;1.38;;
13002;SDS011;6566;57.702;11.984;2022-07-04T03:14:22;8.98;;;1.58;;
13002;SDS011;6566;57.702;11.984;2022-07-04T03:16:48;7.88;;;1.63;;
13002;SDS011;6566;57.702;11.984;2022-07-04T03:19:15;5.40;;;1.33;;
13002;SDS011;6566;57.702;11.984;2022-07-04T03:21:43;10.95;;;2.00;;
13002;SDS011;6566;57.702;11.984;2022-07-04T03:24:09;6.32;;;1.70;;
13002;SDS011;6566;57.702;11.984;2022-07-04T03:26:34;5.50;;;1.35;;
13002;SDS011;6566;57.702;11.984;2022-07-04T03:29:00;7.32;;;1.73;;
13002;SDS011;6566;57.702;11.984;2022-07-04T03:31:25;6.38;;;1.52;;
13002;SDS011;6566;57.702;11.984;2022-07-04T03:33:51;6.18;;;1.48;;
13002;SDS011;6566;57.702;11.984;2022-07-04T03:36:17;4.78;;;1.30;;
13002;SDS011;6566;57.702;11.984;2022-07-04T03:38:45;5.65;;;1.40;;
13002;SDS011;6566;57.702;11.984;2022-07-04T03:41:12;9.98;;;1.80;;
13002;SDS011;6566;57.702;11.984;2022-07-04T03:43:38;6.40;;;1.52;;
13002;SDS011;6566;57.702;11.984;2022-07-04T03:46:05;6.78;;;1.63;;
13002;SDS011;6566;57.702;11.984;2022-07-04T03:48:31;8.32;;;1.30;;
13002;SDS011;6566;57.702;11.984;2022-07-04T03:50:58;4.88;;;1.30;;
13002;SDS011;6566;57.702;11.984;2022-07-04T03:53:24;5.50;;;1.40;;
13002;SDS011;6566;57.702;11.984;2022-07-04T03:55:51;5.18;;;1.25;;
13002;SDS011;6566;57.702;11.984;2022-07-04T03:58:16;3.72;;;1.48;;
13002;SDS011;6566;57.702;11.984;2022-07-04T04:00:42;5.80;;;1.30;;
13002;SDS011;6566;57.702;11.984;2022-07-04T04:03:09;5.40;;;1.42;;
13002;SDS011;6566;57.702;11.984;2022-07-04T04:05:56;5.15;;;1.73;;
13002;SDS011;6566;57.702;11.984;2022-07-04T04:08:22;7.15;;;1.35;;
13002;SDS011;6566;57.702;11.984;2022-07-04T04:10:49;7.90;;;1.80;;
13002;SDS011;6566;57.702;11.984;2022-07-04T04:13:17;7.25;;;1.40;;
13002;SDS011;6566;57.702;11.984;2022-07-04T04:15:43;4.47;;;1.30;;
13002;SDS011;6566;57.702;11.984;2022-07-04T04:18:09;9.98;;;1.55;;
13002;SDS011;6566;57.702;11.984;2022-07-04T04:20:35;9.53;;;1.77;;
13002;SDS011;6566;57.702;11.984;2022-07-04T04:23:02;6.40;;;1.63;;
13002;SDS011;6566;57.702;11.984;2022-07-04T04:25:28;7.43;;;1.70;;
13002;SDS011;6566;57.702;11.984;2022-07-04T04:27:54;7.03;;;1.60;;
13002;SDS011;6566;57.702;11.984;2022-07-04T04:30:21;3.08;;;0.98;;
13002;SDS011;6566;57.702;11.984;2022-07-04T04:32:47;6.47;;;1.30;;
13002;SDS011;6566;57.702;11.984;2022-07-04T04:35:14;6.38;;;1.30;;
13002;SDS011;6566;57.702;11.984;2022-07-04T04:37:39;4.32;;;1.05;;
13002;SDS011;6566;57.702;11.984;2022-07-04T04:40:06;3.88;;;1.10;;
13002;SDS011;6566;57.702;11.984;2022-07-04T04:42:31;5.35;;;1.10;;
13002;SDS011;6566;57.702;11.984;2022-07-04T04:44:58;4.85;;;1.45;;
13002;SDS011;6566;57.702;11.984;2022-07-04T04:47:23;5.85;;;1.30;;
13002;SDS011;6566;57.702;11.984;2022-07-04T04:49:50;3.33;;;1.55;;
13002;SDS011;6566;57.702;11.984;2022-07-04T04:52:16;5.70;;;1.48;;
13002;SDS011;6566;57.702;11.984;2022-07-04T04:54:42;3.88;;;1.38;;
13002;SDS011;6566;57.702;11.984;2022-07-04T04:57:08;3.97;;;1.30;;
13002;SDS011;6566;57.702;11.984;2022-07-04T04:59:34;3.78;;;1.50;;
13002;SDS011;6566;57.702;11.984;2022-07-04T05:02:01;4.15;;;1.40;;
13002;SDS011;6566;57.702;11.984;2022-07-04T05:04:28;6.80;;;1.60;;
13002;SDS011;6566;57.702;11.984;2022-07-04T05:06:54;6.25;;;1.70;;
13002;SDS011;6566;57.702;11.984;2022-07-04T05:09:21;2.85;;;1.42;;
13002;SDS011;6566;57.702;11.984;2022-07-04T05:11:48;5.18;;;1.25;;
13002;SDS011;6566;57.702;11.984;2022-07-04T05:14:14;6.53;;;1.75;;
13002;SDS011;6566;57.702;11.984;2022-07-04T05:16:41;6.88;;;1.48;;
13002;SDS011;6566;57.702;11.984;2022-07-04T05:19:07;5.30;;;1.50;;
13002;SDS011;6566;57.702;11.984;2022-07-04T05:21:33;4.18;;;1.52;;
13002;SDS011;6566;57.702;11.984;2022-07-04T05:24:00;3.10;;;1.40;;
13002;SDS011;6566;57.702;11.984;2022-07-04T05:26:26;4.78;;;1.98;;
13002;SDS011;6566;57.702;11.984;2022-07-04T05:28:52;3.72;;;1.73;;
13002;SDS011;6566;57.702;11.984;2022-07-04T05:31:18;5.15;;;1.90;;
13002;SDS011;6566;57.702;11.984;2022-07-04T05:33:44;3.90;;;1.58;;
13002;SDS011;6566;57.702;11.984;2022-07-04T05:36:10;5.43;;;1.70;;
13002;SDS011;6566;57.702;11.984;2022-07-04T05:38:36;6.82;;;1.55;;
13002;SDS011;6566;57.702;11.984;2022-07-04T05:41:03;5.40;;;1.60;;
13002;SDS011;6566;57.702;11.984;2022-07-04T05:43:30;9.82;;;1.70;;
13002;SDS011;6566;57.702;11.984;2022-07-04T05:45:56;6.78;;;1.55;;
13002;SDS011;6566;57.702;11.984;2022-07-04T05:48:23;5.07;;;1.48;;
13002;SDS011;6566;57.702;11.984;2022-07-04T05:50:49;5.28;;;1.50;;
13002;SDS011;6566;57.702;11.984;2022-07-04T05:53:16;10.63;;;1.63;;
13002;SDS011;6566;57.702;11.984;2022-07-04T05:55:42;8.45;;;1.67;;
13002;SDS011;6566;57.702;11.984;2022-07-04T05:58:07;4.43;;;1.38;;
13002;SDS011;6566;57.702;11.984;2022-07-04T06:00:34;4.00;;;1.20;;
13002;SDS011;6566;57.702;11.984;2022-07-04T06:03:01;3.72;;;1.13;;
13002;SDS011;6566;57.702;11.984;2022-07-04T06:05:27;1.83;;;0.95;;
13002;SDS011;6566;57.702;11.984;2022-07-04T06:07:53;7.55;;;1.35;;
13002;SDS011;6566;57.702;11.984;2022-07-04T06:10:20;3.67;;;1.00;;
13002;SDS011;6566;57.702;11.984;2022-07-04T06:12:46;3.80;;;0.90;;
13002;SDS011;6566;57.702;11.984;2022-07-04T06:15:12;3.33;;;0.98;;
13002;SDS011;6566;57.702;11.984;2022-07-04T06:17:39;4.13;;;0.85;;
13002;SDS011;6566;57.702;11.984;2022-07-04T06:20:06;4.78;;;1.33;;
13002;SDS011;6566;57.702;11.984;2022-07-04T06:22:53;6.90;;;1.10;;
13002;SDS011;6566;57.702;11.984;2022-07-04T06:25:19;3.70;;;0.88;;
13002;SDS011;6566;57.702;11.984;2022-07-04T06:27:46;3.95;;;1.00;;
13002;SDS011;6566;57.702;11.984;2022-07-04T06:30:13;2.85;;;1.25;;
13002;SDS011;6566;57.702;11.984;2022-07-04T06:32:49;4.38;;;0.88;;
13002;SDS011;6566;57.702;11.984;2022-07-04T06:35:22;2.22;;;1.20;;
13002;SDS011;6566;57.702;11.984;2022-07-04T06:38:08;3.97;;;1.52;;
13002;SDS011;6566;57.702;11.984;2022-07-04T06:40:33;3.25;;;1.30;;
13002;SDS011;6566;57.702;11.984;2022-07-04T06:43:01;6.30;;;1.35;;
13002;SDS011;6566;57.702;11.984;2022-07-04T06:45:27;1.75;;;0.90;;
13002;SDS011;6566;57.702;11.984;2022-07-04T06:47:54;3.50;;;1.00;;
13002;SDS011;6566;57.702;11.984;2022-07-04T06:50:20;5.15;;;1.33;;
13002;SDS011;6566;57.702;11.984;2022-07-04T06:52:47;3.47;;;1.13;;
13002;SDS011;6566;57.702;11.984;2022-07-04T06:55:13;2.33;;;0.88;;
13002;SDS011;6566;57.702;11.984;2022-07-04T06:57:40;3.13;;;1.23;;
13002;SDS011;6566;57.702;11.984;2022-07-04T07:00:06;4.75;;;1.00;;
13002;SDS011;6566;57.702;11.984;2022-07-04T07:02:35;4.40;;;0.73;;
13002;SDS011;6566;57.702;11.984;2022-07-04T07:05:01;3.92;;;1.13;;
13002;SDS011;6566;57.702;11.984;2022-07-04T07:07:27;6.15;;;1.23;;
13002;SDS011;6566;57.702;11.984;2022-07-04T07:09:54;2.55;;;0.80;;
13002;SDS011;6566;57.702;11.984;2022-07-04T07:12:21;4.40;;;1.30;;
13002;SDS011;6566;57.702;11.984;2022-07-04T07:14:49;4.60;;;1.05;;
13002;SDS011;6566;57.702;11.984;2022-07-04T07:17:16;5.07;;;0.70;;
13002;SDS011;6566;57.702;11.984;2022-07-04T07:19:42;3.63;;;0.80;;
13002;SDS011;6566;57.702;11.984;2022-07-04T07:22:13;7.65;;;1.17;;
13002;SDS011;6566;57.702;11.984;2022-07-04T07:24:40;2.08;;;0.90;;
13002;SDS011;6566;57.702;11.984;2022-07-04T07:27:07;3.65;;;0.85;;
13002;SDS011;6566;57.702;11.984;2022-07-04T07:29:35;1.90;;;0.82;;
13002;SDS011;6566;57.702;11.984;2022-07-04T07:32:03;3.33;;;0.95;;
13002;SDS011;6566;57.702;11.984;2022-07-04T07:34:29;10.48;;;1.17;;
13002;SDS011;6566;57.702;11.984;2022-07-04T07:36:55;4.65;;;1.10;;
13002;SDS011;6566;57.702;11.984;2022-07-04T07:39:22;1.70;;;0.80;;
13002;SDS011;6566;57.702;11.984;2022-07-04T07:41:48;2.47;;;0.80;;
13002;SDS011;6566;57.702;11.984;2022-07-04T07:44:14;2.85;;;0.98;;
13002;SDS011;6566;57.702;11.984;2022-07-04T07:46:40;6.00;;;0.80;;
13002;SDS011;6566;57.702;11.984;2022-07-04T07:49:06;4.75;;;0.90;;
13002;SDS011;6566;57.702;11.984;2022-07-04T07:51:32;3.38;;;0.90;;
13002;SDS011;6566;57.702;11.984;2022-07-04T07:53:59;1.95;;;1.00;;
13002;SDS011;6566;57.702;11.984;2022-07-04T07:56:26;1.83;;;1.02;;
13002;SDS011;6566;57.702;11.984;2022-07-04T07:58:52;1.83;;;1.10;;
13002;SDS011;6566;57.702;11.984;2022-07-04T08:01:20;4.82;;;1.00;;
13002;SDS011;6566;57.702;11.984;2022-07-04T08:03:46;1.73;;;0.70;;
13002;SDS011;6566;57.702;11.984;2022-07-04T08:06:32;5.40;;;1.00;;
13002;SDS011;6566;57.702;11.984;2022-07-04T08:08:59;4.18;;;0.95;;
13002;SDS011;6566;57.702;11.984;2022-07-04T08:11:26;6.97;;;1.10;;
13002;SDS011;6566;57.702;11.984;2022-07-04T08:13:52;2.88;;;1.25;;
13002;SDS011;6566;57.702;11.984;2022-07-04T08:16:19;1.92;;;0.90;;
13002;SDS011;6566;57.702;11.984;2022-07-04T08:18:45;3.08;;;0.98;;
13002;SDS011;6566;57.702;11.984;2022-07-04T08:21:11;5.78;;;1.00;;
13002;SDS011;6566;57.702;11.984;2022-07-04T08:23:39;4.82;;;1.10;;
13002;SDS011;6566;57.702;11.984;2022-07-04T08:26:06;3.65;;;1.00;;
13002;SDS011;6566;57.702;11.984;2022-07-04T08:28:33;3.42;;;1.15;;
13002;SDS011;6566;57.702;11.984;2022-07-04T08:30:59;4.57;;;1.33;;
13002;SDS011;6566;57.702;11.984;2022-07-04T08:33:26;7.28;;;1.02;;
13002;SDS011;6566;57.702;11.984;2022-07-04T08:35:52;2.90;;;0.88;;
13002;SDS011;6566;57.702;11.984;2022-07-04T08:38:20;2.83;;;1.00;;
13002;SDS011;6566;57.702;11.984;2022-07-04T08:40:47;3.15;;;0.80;;
13002;SDS011;6566;57.702;11.984;2022-07-04T08:43:17;3.78;;;0.98;;
13002;SDS011;6566;57.702;11.984;2022-07-04T08:45:47;4.60;;;1.02;;
13002;SDS011;6566;57.702;11.984;2022-07-04T08:48:12;2.83;;;1.20;;
13002;SDS011;6566;57.702;11.984;2022-07-04T08:50:43;3.80;;;0.80;;
13002;SDS011;6566;57.702;11.984;2022-07-04T08:53:15;8.57;;;1.00;;
13002;SDS011;6566;57.702;11.984;2022-07-04T08:55:49;3.00;;;1.05;;
13002;SDS011;6566;57.702;11.984;2022-07-04T08:58:36;1.25;;;0.80;;
13002;SDS011;6566;57.702;11.984;2022-07-04T09:01:07;2.22;;;0.80;;
13002;SDS011;6566;57.702;11.984;2022-07-04T09:03:33;3.72;;;0.80;;
13002;SDS011;6566;57.702;11.984;2022-07-04T09:06:00;3.08;;;0.82;;
13002;SDS011;6566;57.702;11.984;2022-07-04T09:08:27;1.95;;;0.73;;
13002;SDS011;6566;57.702;11.984;2022-07-04T09:10:54;8.75;;;1.02;;
13002;SDS011;6566;57.702;11.984;2022-07-04T09:13:20;3.45;;;0.75;;
13002;SDS011;6566;57.702;11.984;2022-07-04T09:15:50;3.55;;;0.90;;
13002;SDS011;6566;57.702;11.984;2022-07-04T09:18:30;5.68;;;0.80;;
13002;SDS011;6566;57.702;11.984;2022-07-04T09:20:56;3.13;;;1.00;;
13002;SDS011;6566;57.702;11.984;2022-07-04T09:23:26;5.55;;;1.10;;
13002;SDS011;6566;57.702;11.984;2022-07-04T09:28:38;3.53;;;0.70;;
13002;SDS011;6566;57.702;11.984;2022-07-04T09:31:14;5.00;;;0.90;;
13002;SDS011;6566;57.702;11.984;2022-07-04T09:33:53;3.63;;;0.70;;
13002;SDS011;6566;57.702;11.984;2022-07-04T09:36:24;3.88;;;0.70;;
13002;SDS011;6566;57.702;11.984;2022-07-04T09:44:48;5.75;;;1.20;;
13002;SDS011;6566;57.702;11.984;2022-07-04T09:47:28;2.45;;;1.02;;
13002;SDS011;6566;57.702;11.984;2022-07-04T09:52:50;2.38;;;0.90;;
13002;SDS011;6566;57.702;11.984;2022-07-04T09:57:48;3.05;;;1.02;;
13002;SDS011;6566;57.702;11.984;2022-07-04T10:00:22;3.45;;;0.98;;
13002;SDS011;6566;57.702;11.984;2022-07-04T10:02:49;2.67;;;0.88;;
13002;SDS011;6566;57.702;11.984;2022-07-04T10:05:26;3.13;;;0.60;;
13002;SDS011;6566;57.702;11.984;2022-07-04T10:07:56;3.17;;;0.80;;
13002;SDS011;6566;57.702;11.984;2022-07-04T10:10:34;5.60;;;1.00;;
13002;SDS011;6566;57.702;11.984;2022-07-04T10:13:03;2.05;;;0.63;;
13002;SDS011;6566;57.702;11.984;2022-07-04T10:15:30;2.30;;;0.80;;
13002;SDS011;6566;57.702;11.984;2022-07-04T10:17:56;5.10;;;0.80;;
13002;SDS011;6566;57.702;11.984;2022-07-04T10:20:23;0.90;;;0.73;;
13002;SDS011;6566;57.702;11.984;2022-07-04T10:22:49;2.85;;;0.80;;
13002;SDS011;6566;57.702;11.984;2022-07-04T10:25:16;2.97;;;1.00;;
13002;SDS011;6566;57.702;11.984;2022-07-04T10:27:43;3.03;;;0.82;;
13002;SDS011;6566;57.702;11.984;2022-07-04T10:30:11;2.28;;;1.02;;
13002;SDS011;6566;57.702;11.984;2022-07-04T10:32:40;3.75;;;1.00;;
13002;SDS011;6566;57.702;11.984;2022-07-04T10:35:11;3.10;;;1.00;;
13002;SDS011;6566;57.702;11.984;2022-07-04T10:43:56;2.17;;;0.93;;
13002;SDS011;6566;57.702;11.984;2022-07-04T10:48:53;1.92;;;0.80;;
13002;SDS011;6566;57.702;11.984;2022-07-04T10:56:40;4.63;;;0.90;;
13002;SDS011;6566;57.702;11.984;2022-07-04T10:59:11;2.65;;;1.00;;
13002;SDS011;6566;57.702;11.984;2022-07-04T11:07:14;2.40;;;0.75;;
13002;SDS011;6566;57.702;11.984;2022-07-04T11:09:41;1.20;;;0.90;;
13002;SDS011;6566;57.702;11.984;2022-07-04T11:12:09;2.00;;;0.90;;
13002;SDS011;6566;57.702;11.984;2022-07-04T11:14:47;2.30;;;0.73;;
13002;SDS011;6566;57.702;11.984;2022-07-04T11:17:36;3.40;;;1.00;;
13002;SDS011;6566;57.702;11.984;2022-07-04T11:20:02;4.63;;;1.45;;
13002;SDS011;6566;57.702;11.984;2022-07-04T11:22:29;7.03;;;1.35;;
13002;SDS011;6566;57.702;11.984;2022-07-04T11:24:56;2.08;;;1.10;;
13002;SDS011;6566;57.702;11.984;2022-07-04T11:27:23;9.27;;;1.20;;
13002;SDS011;6566;57.702;11.984;2022-07-04T11:29:55;5.93;;;1.23;;
13002;SDS011;6566;57.702;11.984;2022-07-04T11:32:29;6.30;;;1.20;;
13002;SDS011;6566;57.702;11.984;2022-07-04T11:34:54;4.63;;;1.25;;
13002;SDS011;6566;57.702;11.984;2022-07-04T11:37:20;5.85;;;1.00;;
13002;SDS011;6566;57.702;11.984;2022-07-04T11:39:56;6.57;;;1.00;;
13002;SDS011;6566;57.702;11.984;2022-07-04T11:43:27;5.00;;;0.90;;
13002;SDS011;6566;57.702;11.984;2022-07-04T11:45:46;4.95;;;0.80;;
13002;SDS011;6566;57.702;11.984;2022-07-04T11:48:22;7.47;;;1.10;;
13002;SDS011;6566;57.702;11.984;2022-07-04T11:50:47;4.15;;;0.90;;
13002;SDS011;6566;57.702;11.984;2022-07-04T11:53:13;4.87;;;0.80;;
13002;SDS011;6566;57.702;11.984;2022-07-04T11:55:51;2.95;;;1.10;;
13002;SDS011;6566;57.702;11.984;2022-07-04T11:58:16;2.55;;;0.80;;
13002;SDS011;6566;57.702;11.984;2022-07-04T12:00:43;2.88;;;0.70;;
13002;SDS011;6566;57.702;11.984;2022-07-04T12:03:10;1.13;;;0.70;;
13002;SDS011;6566;57.702;11.984;2022-07-04T12:05:36;4.20;;;0.60;;
13002;SDS011;6566;57.702;11.984;2022-07-04T12:08:05;0.30;;;0.30;;
13002;SDS011;6566;57.702;11.984;2022-07-04T12:10:34;0.52;;;0.30;;
13002;SDS011;6566;57.702;11.984;2022-07-04T12:13:04;2.53;;;0.30;;
13002;SDS011;6566;57.702;11.984;2022-07-04T12:15:44;3.80;;;0.70;;
13002;SDS011;6566;57.702;11.984;2022-07-04T12:18:25;1.63;;;0.30;;
13002;SDS011;6566;57.702;11.984;2022-07-04T12:20:54;0.28;;;0.20;;
13002;SDS011;6566;57.702;11.984;2022-07-04T12:23:21;0.90;;;0.35;;
13002;SDS011;6566;57.702;11.984;2022-07-04T12:25:49;1.88;;;0.50;;
13002;SDS011;6566;57.702;11.984;2022-07-04T12:28:16;1.83;;;0.40;;
13002;SDS011;6566;57.702;11.984;2022-07-04T12:30:53;1.25;;;0.50;;
13002;SDS011;6566;57.702;11.984;2022-07-04T12:33:20;2.08;;;0.55;;
13002;SDS011;6566;57.702;11.984;2022-07-04T12:43:21;1.48;;;0.40;;
13002;SDS011;6566;57.702;11.984;2022-07-04T12:45:52;0.60;;;0.50;;
13002;SDS011;6566;57.702;11.984;2022-07-04T12:48:28;1.95;;;0.38;;
13002;SDS011;6566;57.702;11.984;2022-07-04T12:50:54;1.40;;;0.47;;
13002;SDS011;6566;57.702;11.984;2022-07-04T12:53:21;0.85;;;0.20;;
13002;SDS011;6566;57.702;11.984;2022-07-04T12:55:48;0.85;;;0.43;;
13002;SDS011;6566;57.702;11.984;2022-07-04T12:58:18;2.25;;;0.40;;
13002;SDS011;6566;57.702;11.984;2022-07-04T13:00:44;4.40;;;0.77;;
13002;SDS011;6566;57.702;11.984;2022-07-04T13:03:11;0.80;;;0.50;;
13002;SDS011;6566;57.702;11.984;2022-07-04T13:05:38;0.95;;;0.43;;
13002;SDS011;6566;57.702;11.984;2022-07-04T13:08:05;1.58;;;0.57;;
13002;SDS011;6566;57.702;11.984;2022-07-04T13:10:33;1.45;;;0.57;;
13002;SDS011;6566;57.702;11.984;2022-07-04T13:12:59;3.83;;;0.60;;
13002;SDS011;6566;57.702;11.984;2022-07-04T13:15:25;2.45;;;0.70;;
13002;SDS011;6566;57.702;11.984;2022-07-04T13:17:52;2.13;;;0.70;;
13002;SDS011;6566;57.702;11.984;2022-07-04T13:20:18;0.93;;;0.40;;
13002;SDS011;6566;57.702;11.984;2022-07-04T13:22:45;1.23;;;0.60;;
13002;SDS011;6566;57.702;11.984;2022-07-04T13:25:11;1.67;;;0.60;;
13002;SDS011;6566;57.702;11.984;2022-07-04T13:27:38;1.55;;;0.40;;
13002;SDS011;6566;57.702;11.984;2022-07-04T13:30:03;1.25;;;0.40;;
13002;SDS011;6566;57.702;11.984;2022-07-04T13:32:29;3.33;;;0.60;;
13002;SDS011;6566;57.702;11.984;2022-07-04T13:34:56;2.80;;;0.80;;
13002;SDS011;6566;57.702;11.984;2022-07-04T13:37:22;2.40;;;0.70;;
13002;SDS011;6566;57.702;11.984;2022-07-04T13:39:47;2.65;;;0.50;;
13002;SDS011;6566;57.702;11.984;2022-07-04T13:42:14;2.10;;;0.47;;
13002;SDS011;6566;57.702;11.984;2022-07-04T13:44:59;4.30;;;0.60;;
13002;SDS011;6566;57.702;11.984;2022-07-04T13:47:26;3.78;;;0.70;;
13002;SDS011;6566;57.702;11.984;2022-07-04T13:49:53;3.28;;;0.63;;
13002;SDS011;6566;57.702;11.984;2022-07-04T13:52:19;1.23;;;0.47;;
13002;SDS011;6566;57.702;11.984;2022-07-04T13:54:45;1.60;;;0.60;;
13002;SDS011;6566;57.702;11.984;2022-07-04T13:57:12;1.05;;;0.52;;
13002;SDS011;6566;57.702;11.984;2022-07-04T13:59:38;1.05;;;0.50;;
13002;SDS011;6566;57.702;11.984;2022-07-04T14:02:05;1.95;;;0.60;;
13002;SDS011;6566;57.702;11.984;2022-07-04T14:04:31;2.65;;;0.70;;
13002;SDS011;6566;57.702;11.984;2022-07-04T14:06:58;2.10;;;0.70;;
13002;SDS011;6566;57.702;11.984;2022-07-04T14:09:25;2.65;;;0.68;;
13002;SDS011;6566;57.702;11.984;2022-07-04T14:11:51;2.28;;;0.60;;
13002;SDS011;6566;57.702;11.984;2022-07-04T14:14:18;0.90;;;0.50;;
13002;SDS011;6566;57.702;11.984;2022-07-04T14:16:44;1.17;;;0.50;;
13002;SDS011;6566;57.702;11.984;2022-07-04T14:19:11;0.60;;;0.50;;
13002;SDS011;6566;57.702;11.984;2022-07-04T14:21:37;4.78;;;0.40;;
13002;SDS011;6566;57.702;11.984;2022-07-04T14:24:04;3.30;;;0.63;;
13002;SDS011;6566;57.702;11.984;2022-07-04T14:26:30;2.15;;;0.65;;
13002;SDS011;6566;57.702;11.984;2022-07-04T14:28:57;1.17;;;0.40;;
13002;SDS011;6566;57.702;11.984;2022-07-04T14:31:23;1.05;;;0.60;;
13002;SDS011;6566;57.702;11.984;2022-07-04T14:33:50;2.38;;;0.50;;
13002;SDS011;6566;57.702;11.984;2022-07-04T14:36:15;1.08;;;0.32;;
13002;SDS011;6566;57.702;11.984;2022-07-04T14:38:42;1.70;;;0.87;;
13002;SDS011;6566;57.702;11.984;2022-07-04T14:41:08;1.38;;;0.70;;
13002;SDS011;6566;57.702;11.984;2022-07-04T14:43:41;1.15;;;0.88;;
13002;SDS011;6566;57.702;11.984;2022-07-04T14:46:08;3.53;;;0.77;;
13002;SDS011;6566;57.702;11.984;2022-07-04T14:48:35;2.80;;;0.65;;
13002;SDS011;6566;57.702;11.984;2022-07-04T14:51:02;1.67;;;0.45;;
13002;SDS011;6566;57.702;11.984;2022-07-04T14:53:28;1.55;;;0.50;;
13002;SDS011;6566;57.702;11.984;2022-07-04T14:55:55;1.65;;;0.60;;
13002;SDS011;6566;57.702;11.984;2022-07-04T14:58:21;1.58;;;0.60;;
13002;SDS011;6566;57.702;11.984;2022-07-04T15:00:48;1.77;;;0.55;;
13002;SDS011;6566;57.702;11.984;2022-07-04T15:03:14;1.88;;;0.75;;
13002;SDS011;6566;57.702;11.984;2022-07-04T15:05:42;8.05;;;0.88;;
13002;SDS011;6566;57.702;11.984;2022-07-04T15:08:09;2.05;;;0.60;;
13002;SDS011;6566;57.702;11.984;2022-07-04T15:10:35;0.80;;;0.60;;
13002;SDS011;6566;57.702;11.984;2022-07-04T15:13:01;1.67;;;0.60;;
13002;SDS011;6566;57.702;11.984;2022-07-04T15:15:26;1.58;;;0.50;;
13002;SDS011;6566;57.702;11.984;2022-07-04T15:17:54;2.53;;;0.70;;
13002;SDS011;6566;57.702;11.984;2022-07-04T15:20:19;1.52;;;0.50;;
13002;SDS011;6566;57.702;11.984;2022-07-04T15:23:10;2.63;;;0.60;;
13002;SDS011;6566;57.702;11.984;2022-07-04T15:25:56;1.42;;;0.47;;
13002;SDS011;6566;57.702;11.984;2022-07-04T15:28:21;1.30;;;0.60;;
13002;SDS011;6566;57.702;11.984;2022-07-04T15:30:48;3.92;;;0.60;;
13002;SDS011;6566;57.702;11.984;2022-07-04T15:33:13;1.48;;;0.80;;